Time;durP1;ratioP1;P1;durP2;ratioP2;P2;SDS_P1;SDS_P2;PMS_P1;PMS_P2;Temp;Humidity;BMP_temperature;BMP_pressure;BME280_temperature;BME280_humidity;BME280_pressure;Samples;Min_cycle;Max_cycle;Signal;HPM_P1;HPM_P2
2021/12/23 00:02:03;;;;;;;33.80;16.88;;;;;;;;;;5008038;28;96834;-76
2021/12/23 00:04:30;;;;;;;27.15;15.65;;;;;;;;;;5007628;28;95754;-78
2021/12/23 00:06:56;;;;;;;29.98;16.15;;;;;;;;;;5008140;28;96962;-78
2021/12/23 00:09:28;;;;;;;33.85;17.20;;;;;;;;;;5008111;28;96123;-77
2021/12/23 00:11:54;;;;;;;36.70;16.65;;;;;;;;;;5007436;28;96934;-78
2021/12/23 00:14:21;;;;;;;30.77;17.25;;;;;;;;;;5006761;28;95440;-77
2021/12/23 00:16:55;;;;;;;32.80;17.08;;;;;;;;;;5008788;28;96823;-78
2021/12/23 00:24:39;;;;;;;31.38;16.08;;;;;;;;;;5008213;28;97265;-76
2021/12/23 00:27:06;;;;;;;32.72;17.27;;;;;;;;;;5007802;28;95556;-77
2021/12/23 00:29:32;;;;;;;27.73;15.75;;;;;;;;;;5008228;28;96643;-77
2021/12/23 00:31:59;;;;;;;29.33;16.10;;;;;;;;;;5007611;28;97394;-75
2021/12/23 00:34:26;;;;;;;31.67;16.45;;;;;;;;;;5001657;28;95316;-77
2021/12/23 00:36:54;;;;;;;34.38;16.33;;;;;;;;;;5008396;28;96864;-78
2021/12/23 00:39:20;;;;;;;34.53;16.70;;;;;;;;;;5007302;28;97328;-76
2021/12/23 00:41:47;;;;;;;27.85;15.55;;;;;;;;;;5007932;28;95440;-77
2021/12/23 00:44:13;;;;;;;33.33;16.48;;;;;;;;;;5012771;28;97031;-75
2021/12/23 00:46:40;;;;;;;34.22;17.02;;;;;;;;;;5000768;28;95500;-79
2021/12/23 00:49:07;;;;;;;29.23;16.25;;;;;;;;;;4990218;28;96810;-77
2021/12/23 00:51:34;;;;;;;30.65;16.63;;;;;;;;;;5006867;28;97250;-77
2021/12/23 00:54:04;;;;;;;27.42;15.85;;;;;;;;;;5009165;28;95917;-78
2021/12/23 00:56:35;;;;;;;29.63;16.20;;;;;;;;;;5011823;28;96875;-75
2021/12/23 00:59:02;;;;;;;32.03;15.80;;;;;;;;;;5010865;28;96971;-76
2021/12/23 01:01:29;;;;;;;31.70;16.83;;;;;;;;;;5010115;28;95492;-77
2021/12/23 01:03:56;;;;;;;37.08;17.25;;;;;;;;;;5007073;28;97147;-75
2021/12/23 01:06:23;;;;;;;33.30;17.17;;;;;;;;;;5006141;28;95230;-75
2021/12/23 01:08:49;;;;;;;31.13;16.38;;;;;;;;;;5010584;28;97192;-77
2021/12/23 01:11:15;;;;;;;31.42;16.85;;;;;;;;;;5010762;28;97310;-75
2021/12/23 01:13:48;;;;;;;31.55;16.35;;;;;;;;;;5010975;28;95463;-76
2021/12/23 01:16:26;;;;;;;30.60;17.48;;;;;;;;;;5008846;28;96543;-77
2021/12/23 01:18:55;;;;;;;31.45;17.33;;;;;;;;;;5004740;28;97464;-75
2021/12/23 01:21:21;;;;;;;31.92;17.02;;;;;;;;;;5009991;28;95721;-74
2021/12/23 01:23:49;;;;;;;32.75;17.00;;;;;;;;;;5011018;28;96829;-75
2021/12/23 01:26:19;;;;;;;28.65;16.77;;;;;;;;;;5013469;28;97455;-77
2021/12/23 01:28:47;;;;;;;29.00;16.13;;;;;;;;;;5010739;28;97115;-74
2021/12/23 01:31:13;;;;;;;32.03;16.60;;;;;;;;;;5010188;28;97281;-74
2021/12/23 01:33:39;;;;;;;28.77;16.27;;;;;;;;;;5010993;28;95274;-74
2021/12/23 01:36:06;;;;;;;28.98;16.42;;;;;;;;;;5007508;28;96862;-75
2021/12/23 01:38:36;;;;;;;33.17;17.20;;;;;;;;;;5012782;28;96740;-74
2021/12/23 01:41:03;;;;;;;31.77;17.42;;;;;;;;;;5010307;28;95671;-74
2021/12/23 01:43:29;;;;;;;34.90;17.27;;;;;;;;;;5009960;28;95733;-74
2021/12/23 01:45:56;;;;;;;29.80;16.45;;;;;;;;;;5010652;28;97291;-75
2021/12/23 01:48:22;;;;;;;27.95;16.42;;;;;;;;;;5014079;28;95884;-75
2021/12/23 01:50:49;;;;;;;30.52;17.85;;;;;;;;;;5009981;28;97362;-75
2021/12/23 01:53:15;;;;;;;31.67;16.92;;;;;;;;;;5009305;28;95165;-73
2021/12/23 01:55:42;;;;;;;33.25;16.90;;;;;;;;;;5009975;28;97246;-74
2021/12/23 01:58:09;;;;;;;29.13;16.33;;;;;;;;;;5010029;28;96855;-74
2021/12/23 02:00:37;;;;;;;33.38;16.98;;;;;;;;;;5010469;28;95360;-75
2021/12/23 02:03:03;;;;;;;32.63;17.33;;;;;;;;;;5010248;28;96787;-74
2021/12/23 02:05:31;;;;;;;30.80;17.25;;;;;;;;;;5010155;28;98438;-76
2021/12/23 02:07:58;;;;;;;29.67;16.85;;;;;;;;;;5010095;28;95414;-75
2021/12/23 02:10:26;;;;;;;34.08;17.63;;;;;;;;;;5011617;28;96882;-75
2021/12/23 02:12:52;;;;;;;32.40;17.30;;;;;;;;;;5009590;28;95329;-77
2021/12/23 02:15:19;;;;;;;30.42;16.02;;;;;;;;;;5010442;28;96890;-74
2021/12/23 02:17:46;;;;;;;35.88;18.02;;;;;;;;;;5010004;28;96458;-76
2021/12/23 02:20:14;;;;;;;34.97;17.20;;;;;;;;;;5009609;28;95270;-75
2021/12/23 02:22:41;;;;;;;30.13;16.02;;;;;;;;;;5010233;28;96710;-77
2021/12/23 02:25:08;;;;;;;30.75;17.02;;;;;;;;;;5009100;28;96262;-76
2021/12/23 02:27:34;;;;;;;36.42;16.20;;;;;;;;;;5010505;28;95147;-75
2021/12/23 02:30:02;;;;;;;28.52;16.63;;;;;;;;;;5010004;28;96827;-75
2021/12/23 02:32:29;;;;;;;32.42;17.45;;;;;;;;;;5012689;28;97431;-78
2021/12/23 02:34:56;;;;;;;39.60;17.67;;;;;;;;;;5010787;27;95942;-77
2021/12/23 02:37:22;;;;;;;32.75;17.42;;;;;;;;;;5009292;28;97240;-76
2021/12/23 02:39:49;;;;;;;31.85;17.70;;;;;;;;;;5003842;28;95361;-78
2021/12/23 02:42:15;;;;;;;38.72;20.00;;;;;;;;;;5009845;28;96777;-78
2021/12/23 02:44:41;;;;;;;32.55;17.70;;;;;;;;;;5001980;28;97230;-78
2021/12/23 02:47:08;;;;;;;34.50;18.00;;;;;;;;;;4989934;28;95288;-77
2021/12/23 02:49:34;;;;;;;31.10;16.45;;;;;;;;;;5008602;28;96882;-77
2021/12/23 02:52:00;;;;;;;31.67;17.55;;;;;;;;;;5009820;28;97120;-78
2021/12/23 02:54:27;;;;;;;34.78;18.25;;;;;;;;;;5001802;28;95781;-78
2021/12/23 02:56:53;;;;;;;30.95;17.33;;;;;;;;;;5007499;28;97388;-76
2021/12/23 02:59:20;;;;;;;34.55;17.70;;;;;;;;;;5006005;28;95339;-78
2021/12/23 03:01:46;;;;;;;34.65;18.80;;;;;;;;;;5008956;28;96910;-77
2021/12/23 03:04:13;;;;;;;31.23;17.90;;;;;;;;;;5008997;28;97804;-77
2021/12/23 03:06:39;;;;;;;34.20;18.52;;;;;;;;;;5003317;28;95849;-78
2021/12/23 03:09:05;;;;;;;34.42;18.20;;;;;;;;;;5007149;28;96831;-75
2021/12/23 03:11:32;;;;;;;35.17;17.80;;;;;;;;;;5009369;28;97794;-77
2021/12/23 03:13:59;;;;;;;42.38;18.17;;;;;;;;;;5012087;28;95282;-78
2021/12/23 03:16:28;;;;;;;35.28;19.08;;;;;;;;;;5007872;28;97300;-78
2021/12/23 03:18:55;;;;;;;33.55;17.73;;;;;;;;;;5006786;28;95515;-76
2021/12/23 03:21:21;;;;;;;37.85;18.92;;;;;;;;;;5008675;28;97109;-77
2021/12/23 03:23:47;;;;;;;36.10;18.83;;;;;;;;;;5008858;28;97606;-78
2021/12/23 03:26:14;;;;;;;32.30;18.17;;;;;;;;;;5008564;28;95783;-76
2021/12/23 03:28:40;;;;;;;32.75;18.23;;;;;;;;;;5008568;28;95874;-78
2021/12/23 03:31:07;;;;;;;34.58;17.65;;;;;;;;;;5007909;28;96153;-74
2021/12/23 03:33:33;;;;;;;34.33;18.05;;;;;;;;;;5008612;28;95543;-75
2021/12/23 03:36:00;;;;;;;38.92;18.08;;;;;;;;;;5011857;28;96781;-76
2021/12/23 03:38:26;;;;;;;36.88;18.10;;;;;;;;;;5008776;28;95959;-78
2021/12/23 03:40:53;;;;;;;32.17;17.27;;;;;;;;;;5009300;28;96835;-75
2021/12/23 03:43:20;;;;;;;32.38;17.90;;;;;;;;;;5007263;28;97258;-77
2021/12/23 03:45:47;;;;;;;40.65;18.63;;;;;;;;;;5009000;28;95782;-76
2021/12/23 03:48:14;;;;;;;38.63;17.95;;;;;;;;;;5008359;28;96866;-78
2021/12/23 03:50:41;;;;;;;32.90;17.98;;;;;;;;;;5008561;28;97316;-75
2021/12/23 03:53:07;;;;;;;36.47;19.65;;;;;;;;;;5008491;28;96037;-76
2021/12/23 03:55:33;;;;;;;32.80;18.05;;;;;;;;;;5008585;28;96562;-76
2021/12/23 03:58:00;;;;;;;33.10;18.63;;;;;;;;;;5011342;28;96315;-76
2021/12/23 04:00:26;;;;;;;31.50;17.52;;;;;;;;;;5008567;28;96732;-74
2021/12/23 04:02:53;;;;;;;35.05;17.83;;;;;;;;;;5008075;28;97556;-75
2021/12/23 04:05:19;;;;;;;36.88;18.60;;;;;;;;;;5008041;28;95506;-74
2021/12/23 04:07:46;;;;;;;33.92;18.10;;;;;;;;;;5008992;28;96797;-77
2021/12/23 04:10:14;;;;;;;40.17;19.02;;;;;;;;;;5008097;28;98392;-75
2021/12/23 04:12:40;;;;;;;34.60;17.98;;;;;;;;;;5000708;28;96049;-74
2021/12/23 04:15:07;;;;;;;35.72;18.05;;;;;;;;;;5004063;28;96757;-75
2021/12/23 04:17:36;;;;;;;39.92;19.77;;;;;;;;;;5027913;27;97318;-76
2021/12/23 04:20:15;;;;;;;33.47;18.33;;;;;;;;;;5023840;28;95820;-75
2021/12/23 04:22:42;;;;;;;35.40;19.48;;;;;;;;;;5006298;28;97589;-76
2021/12/23 04:25:09;;;;;;;33.92;18.60;;;;;;;;;;5007854;28;95738;-74
2021/12/23 04:27:35;;;;;;;37.85;19.48;;;;;;;;;;5008882;28;97104;-78
2021/12/23 04:30:03;;;;;;;35.38;18.90;;;;;;;;;;5008661;28;97362;-77
2021/12/23 04:32:29;;;;;;;33.70;18.30;;;;;;;;;;5007296;28;95438;-76
2021/12/23 04:34:55;;;;;;;36.03;19.20;;;;;;;;;;5007091;28;96945;-77
2021/12/23 04:37:22;;;;;;;42.28;20.60;;;;;;;;;;5007674;28;97415;-79
2021/12/23 04:39:48;;;;;;;36.45;19.60;;;;;;;;;;5008202;28;95679;-76
2021/12/23 04:42:14;;;;;;;37.65;20.33;;;;;;;;;;5010976;28;97038;-77
2021/12/23 04:44:41;;;;;;;39.38;19.48;;;;;;;;;;5008099;28;95482;-75
2021/12/23 04:47:07;;;;;;;35.58;19.85;;;;;;;;;;5007280;28;96767;-76
2021/12/23 04:49:33;;;;;;;39.33;19.88;;;;;;;;;;5007679;28;97303;-77
2021/12/23 04:51:59;;;;;;;40.00;20.10;;;;;;;;;;5007849;28;95315;-75
2021/12/23 04:54:26;;;;;;;42.33;21.45;;;;;;;;;;5007700;28;96379;-76
2021/12/23 04:56:52;;;;;;;39.22;20.00;;;;;;;;;;5007243;28;96407;-77
2021/12/23 04:59:20;;;;;;;39.80;21.20;;;;;;;;;;5007749;28;95715;-77
2021/12/23 05:01:47;;;;;;;39.53;21.25;;;;;;;;;;5007552;28;96793;-77
2021/12/23 05:04:13;;;;;;;39.55;21.77;;;;;;;;;;5010638;28;95388;-73
2021/12/23 05:06:40;;;;;;;37.47;20.23;;;;;;;;;;5007404;28;96804;-74
2021/12/23 05:09:07;;;;;;;39.67;20.80;;;;;;;;;;5007182;28;98063;-74
2021/12/23 05:11:34;;;;;;;42.78;21.77;;;;;;;;;;5007928;28;95363;-74
2021/12/23 05:14:00;;;;;;;41.25;22.00;;;;;;;;;;5006925;28;97221;-74
2021/12/23 05:16:26;;;;;;;36.67;20.40;;;;;;;;;;5006910;28;97441;-74
2021/12/23 05:18:53;;;;;;;46.85;21.30;;;;;;;;;;5016659;28;95631;-73
2021/12/23 05:21:19;;;;;;;40.30;20.98;;;;;;;;;;5026972;28;96810;-76
2021/12/23 05:23:45;;;;;;;41.05;20.98;;;;;;;;;;5015249;27;97516;-78
2021/12/23 05:26:12;;;;;;;40.28;20.98;;;;;;;;;;5007331;28;96320;-76
2021/12/23 05:28:38;;;;;;;39.28;21.05;;;;;;;;;;5005888;28;97543;-76
2021/12/23 05:31:05;;;;;;;42.63;21.95;;;;;;;;;;5010573;28;95633;-76
2021/12/23 05:33:34;;;;;;;44.40;22.35;;;;;;;;;;5010317;28;96833;-77
2021/12/23 05:36:00;;;;;;;42.60;21.10;;;;;;;;;;5010188;28;97369;-74
2021/12/23 05:38:26;;;;;;;42.40;22.45;;;;;;;;;;5009290;28;95405;-74
2021/12/23 05:40:53;;;;;;;43.08;22.17;;;;;;;;;;5003733;28;95694;-77
2021/12/23 05:43:19;;;;;;;47.28;21.80;;;;;;;;;;5013693;28;97583;-75
2021/12/23 05:45:46;;;;;;;41.33;22.42;;;;;;;;;;5004994;28;95136;-76
2021/12/23 05:48:12;;;;;;;42.13;21.70;;;;;;;;;;5004043;28;97083;-76
2021/12/23 05:50:39;;;;;;;46.95;22.40;;;;;;;;;;4997758;28;95385;-78
2021/12/23 05:53:05;;;;;;;43.15;21.95;;;;;;;;;;4994993;28;96759;-73
2021/12/23 05:55:32;;;;;;;46.25;24.08;;;;;;;;;;5010801;28;97652;-78
2021/12/23 05:57:58;;;;;;;47.97;23.30;;;;;;;;;;5010463;28;95443;-79
2021/12/23 06:00:26;;;;;;;46.10;24.13;;;;;;;;;;5010668;28;96478;-79
2021/12/23 06:02:52;;;;;;;47.35;24.25;;;;;;;;;;5009914;28;96898;-79
2021/12/23 06:05:19;;;;;;;47.28;24.83;;;;;;;;;;5014633;28;95253;-78
2021/12/23 06:07:46;;;;;;;46.03;23.13;;;;;;;;;;5022533;28;96790;-77
2021/12/23 06:10:14;;;;;;;48.33;22.80;;;;;;;;;;5007124;28;97193;-78
2021/12/23 06:12:41;;;;;;;49.63;24.23;;;;;;;;;;4999140;28;96963;-78
2021/12/23 06:15:07;;;;;;;52.97;25.05;;;;;;;;;;5010077;28;97267;-78
2021/12/23 06:17:34;;;;;;;51.92;24.67;;;;;;;;;;5005650;28;96545;-77
2021/12/23 06:20:00;;;;;;;50.13;24.48;;;;;;;;;;5008728;28;96892;-77
2021/12/23 06:22:27;;;;;;;53.50;24.85;;;;;;;;;;5008876;28;96392;-77
2021/12/23 06:24:53;;;;;;;51.30;24.30;;;;;;;;;;5009722;28;95578;-75
2021/12/23 06:27:20;;;;;;;51.10;25.13;;;;;;;;;;5009790;28;96906;-79
2021/12/23 06:29:46;;;;;;;53.88;25.55;;;;;;;;;;5013627;28;97484;-79
2021/12/23 06:32:13;;;;;;;53.20;25.02;;;;;;;;;;5007731;28;96098;-78
2021/12/23 06:34:39;;;;;;;53.53;25.23;;;;;;;;;;5010078;28;97321;-78
2021/12/23 06:37:06;;;;;;;52.03;24.63;;;;;;;;;;5008929;28;95422;-75
2021/12/23 06:39:32;;;;;;;60.00;27.58;;;;;;;;;;5009407;28;96883;-77
2021/12/23 06:41:59;;;;;;;55.42;26.05;;;;;;;;;;5009889;28;97296;-75
2021/12/23 06:44:25;;;;;;;57.72;25.20;;;;;;;;;;5010101;28;97158;-77
2021/12/23 06:46:52;;;;;;;57.35;26.13;;;;;;;;;;5008760;28;95862;-77
2021/12/23 06:49:18;;;;;;;56.58;27.05;;;;;;;;;;5009689;28;97289;-79
2021/12/23 06:51:45;;;;;;;59.95;29.05;;;;;;;;;;5012811;28;95532;-77
2021/12/23 06:54:15;;;;;;;61.05;26.83;;;;;;;;;;5008663;28;97477;-79
2021/12/23 06:56:41;;;;;;;55.17;27.25;;;;;;;;;;5016538;28;95832;-79
2021/12/23 06:59:07;;;;;;;58.70;27.90;;;;;;;;;;5009807;28;96859;-79
2021/12/23 07:01:35;;;;;;;63.55;27.27;;;;;;;;;;5008999;28;96216;-78
2021/12/23 07:04:14;;;;;;;59.88;27.52;;;;;;;;;;5008718;28;95817;-77
2021/12/23 16:14:15;;;;;;;59.40;27.98;;;;;;;;;;4979901;27;1437389;-75
2021/12/23 16:16:42;;;;;;;66.13;29.65;;;;;;;;;;5000522;28;97919;-75
2021/12/23 16:19:08;;;;;;;59.97;27.70;;;;;;;;;;5009226;28;95625;-74
2021/12/23 16:21:35;;;;;;;63.55;28.45;;;;;;;;;;4992644;28;96926;-76
2021/12/23 16:24:02;;;;;;;68.90;31.58;;;;;;;;;;4986827;28;97736;-75
2021/12/23 16:26:28;;;;;;;61.00;28.65;;;;;;;;;;5014535;28;95826;-77
2021/12/23 16:28:56;;;;;;;63.70;29.98;;;;;;;;;;5004068;28;97161;-76
2021/12/23 16:31:24;;;;;;;62.90;29.05;;;;;;;;;;4989852;28;97643;-76
2021/12/23 16:33:51;;;;;;;58.60;28.95;;;;;;;;;;5017309;28;97085;-76
2021/12/23 16:36:17;;;;;;;65.57;30.05;;;;;;;;;;5007217;27;97781;-77
2021/12/23 16:38:44;;;;;;;62.38;28.90;;;;;;;;;;5023560;28;95387;-77
2021/12/23 16:41:12;;;;;;;64.50;26.67;;;;;;;;;;5012839;28;96875;-74
2021/12/23 16:43:39;;;;;;;58.63;28.48;;;;;;;;;;5014594;28;97439;-75
2021/12/23 16:46:06;;;;;;;59.42;28.05;;;;;;;;;;4996622;27;95464;-74
2021/12/23 16:48:34;;;;;;;59.33;28.08;;;;;;;;;;4991459;28;96933;-75
2021/12/23 16:51:05;;;;;;;60.85;30.33;;;;;;;;;;5014369;28;96128;-75
2021/12/23 16:53:32;;;;;;;63.72;29.00;;;;;;;;;;5004437;28;95784;-75
2021/12/23 16:56:14;;;;;;;59.65;28.92;;;;;;;;;;5004375;28;96879;-75
2021/12/23 16:58:42;;;;;;;57.28;28.48;;;;;;;;;;5002738;28;95245;-75
2021/12/23 17:01:09;;;;;;;65.30;28.65;;;;;;;;;;5004915;28;97090;-75
2021/12/23 17:03:37;;;;;;;54.10;29.05;;;;;;;;;;4998828;28;97245;-76
2021/12/23 17:06:04;;;;;;;58.20;28.60;;;;;;;;;;5009413;28;95526;-74
2021/12/23 17:08:30;;;;;;;60.47;28.05;;;;;;;;;;5008769;27;96879;-74
2021/12/23 17:10:58;;;;;;;61.75;30.63;;;;;;;;;;4999972;28;97302;-74
2021/12/23 17:13:25;;;;;;;62.35;29.60;;;;;;;;;;4996585;28;96903;-73
2021/12/23 17:15:52;;;;;;;61.38;29.55;;;;;;;;;;5021819;28;97224;-73
2021/12/23 17:18:32;;;;;;;65.70;30.80;;;;;;;;;;5005661;28;96120;-75
2021/12/23 17:23:26;;;;;;;65.10;29.45;;;;;;;;;;5000727;28;97369;-73
2021/12/23 17:25:53;;;;;;;62.67;29.02;;;;;;;;;;4989768;28;95852;-74
2021/12/23 17:28:20;;;;;;;62.42;29.25;;;;;;;;;;4988836;28;97432;-73
2021/12/23 17:30:47;;;;;;;62.95;28.92;;;;;;;;;;4995714;28;97285;-73
2021/12/23 17:33:13;;;;;;;59.63;28.50;;;;;;;;;;4990514;28;95474;-74
2021/12/23 17:35:43;;;;;;;65.10;29.98;;;;;;;;;;5009654;28;96768;-74
2021/12/23 17:38:13;;;;;;;67.45;30.45;;;;;;;;;;4990109;28;97490;-74
2021/12/23 17:40:40;;;;;;;66.45;30.92;;;;;;;;;;4992075;28;95150;-74
2021/12/23 17:43:09;;;;;;;66.05;31.73;;;;;;;;;;4972107;28;97685;-75
2021/12/23 17:45:36;;;;;;;66.93;31.73;;;;;;;;;;4969341;28;95770;-76
2021/12/23 17:48:03;;;;;;;68.28;32.15;;;;;;;;;;4969339;28;96767;-77
2021/12/23 17:50:32;;;;;;;69.93;32.58;;;;;;;;;;4991317;28;97315;-76
2021/12/23 17:52:59;;;;;;;77.35;33.92;;;;;;;;;;4983402;28;96642;-77
2021/12/23 17:55:27;;;;;;;72.70;34.80;;;;;;;;;;4968477;28;96787;-75
2021/12/23 17:57:54;;;;;;;78.28;33.60;;;;;;;;;;4984170;28;97714;-74
2021/12/23 18:00:22;;;;;;;81.45;35.05;;;;;;;;;;4983270;28;95355;-76
2021/12/23 18:02:48;;;;;;;72.18;31.65;;;;;;;;;;4990493;28;97417;-75
2021/12/23 18:05:15;;;;;;;80.78;34.72;;;;;;;;;;4989693;28;95325;-75
2021/12/23 18:07:43;;;;;;;85.15;37.67;;;;;;;;;;4988496;28;96894;-76
2021/12/23 18:10:11;;;;;;;81.53;36.70;;;;;;;;;;4988770;28;97631;-77
2021/12/23 18:12:38;;;;;;;79.97;35.53;;;;;;;;;;4994170;28;95488;-77
2021/12/23 18:15:05;;;;;;;80.90;34.85;;;;;;;;;;5006698;28;96765;-75
2021/12/23 18:17:31;;;;;;;89.47;36.20;;;;;;;;;;5007421;28;97314;-76
2021/12/23 18:19:58;;;;;;;88.70;35.90;;;;;;;;;;4988463;28;95159;-78
2021/12/23 18:22:24;;;;;;;79.25;35.45;;;;;;;;;;4968070;28;96726;-76
2021/12/23 18:24:51;;;;;;;78.43;35.83;;;;;;;;;;4986388;28;95262;-77
2021/12/23 18:27:19;;;;;;;90.03;38.03;;;;;;;;;;5008519;28;96791;-79
2021/12/23 18:29:46;;;;;;;99.80;39.10;;;;;;;;;;4986347;28;97259;-74
2021/12/23 18:32:13;;;;;;;89.25;36.15;;;;;;;;;;4987681;28;95283;-76
2021/12/23 18:34:44;;;;;;;89.80;37.95;;;;;;;;;;4978429;28;97014;-75
2021/12/23 18:37:22;;;;;;;91.97;35.72;;;;;;;;;;4979489;28;97335;-75
2021/12/23 18:39:49;;;;;;;98.05;38.03;;;;;;;;;;4972411;28;96928;-76
2021/12/23 18:42:16;;;;;;;95.53;38.72;;;;;;;;;;4983850;28;96776;-75
2021/12/23 18:44:42;;;;;;;93.95;36.97;;;;;;;;;;4981596;28;97337;-76
2021/12/23 18:47:08;;;;;;;97.80;38.33;;;;;;;;;;4969564;28;97037;-75
2021/12/23 18:49:35;;;;;;;85.15;33.83;;;;;;;;;;4985429;28;97391;-76
2021/12/23 18:52:04;;;;;;;104.18;37.05;;;;;;;;;;4989401;28;95502;-77
2021/12/23 18:54:31;;;;;;;95.38;35.75;;;;;;;;;;4988455;28;97141;-74
2021/12/23 18:56:57;;;;;;;86.40;34.60;;;;;;;;;;4987676;28;97572;-74
2021/12/23 18:59:25;;;;;;;98.07;35.80;;;;;;;;;;4970704;28;95438;-74
2021/12/23 19:01:58;;;;;;;83.55;34.13;;;;;;;;;;4974113;28;96620;-75
2021/12/23 19:07:11;;;;;;;97.53;34.92;;;;;;;;;;4996562;28;95440;-74
2021/12/23 19:09:38;;;;;;;103.90;34.85;;;;;;;;;;4987611;28;97323;-74
2021/12/23 19:12:04;;;;;;;103.22;35.40;;;;;;;;;;5000480;28;95889;-74
2021/12/23 19:14:31;;;;;;;95.10;33.95;;;;;;;;;;4989805;28;96763;-74
2021/12/23 19:16:57;;;;;;;98.13;36.25;;;;;;;;;;4997937;28;97660;-74
2021/12/23 19:19:24;;;;;;;109.35;37.60;;;;;;;;;;4988254;28;95624;-74
2021/12/23 19:21:50;;;;;;;128.10;45.70;;;;;;;;;;4989309;28;97316;-75
2021/12/23 19:24:17;;;;;;;115.20;40.60;;;;;;;;;;5000948;28;97229;-74
2021/12/23 19:26:44;;;;;;;134.25;43.22;;;;;;;;;;4986636;28;95784;-73
2021/12/23 19:29:11;;;;;;;141.32;44.13;;;;;;;;;;4997979;28;96638;-76
2021/12/23 19:31:38;;;;;;;143.27;45.58;;;;;;;;;;5004707;28;95278;-75
2021/12/23 19:34:06;;;;;;;154.07;45.75;;;;;;;;;;4967996;28;96986;-76
2021/12/23 19:36:33;;;;;;;149.63;47.92;;;;;;;;;;4985752;28;97614;-75
2021/12/23 19:38:59;;;;;;;154.05;48.22;;;;;;;;;;5005936;28;95801;-75
2021/12/23 19:41:26;;;;;;;154.32;47.35;;;;;;;;;;4987005;28;97811;-74
2021/12/23 19:43:52;;;;;;;162.75;49.90;;;;;;;;;;4968661;28;97383;-74
2021/12/23 19:46:19;;;;;;;151.70;45.78;;;;;;;;;;4983505;28;95313;-74
2021/12/23 19:48:45;;;;;;;167.95;46.28;;;;;;;;;;4986951;28;96753;-73
2021/12/23 19:51:12;;;;;;;178.23;50.85;;;;;;;;;;4983492;28;97761;-75
2021/12/23 19:53:38;;;;;;;186.52;49.53;;;;;;;;;;4977991;28;97058;-75
2021/12/23 19:56:08;;;;;;;181.30;49.67;;;;;;;;;;4972450;28;96825;-74
2021/12/23 19:58:34;;;;;;;180.32;45.95;;;;;;;;;;4971099;28;95769;-74
2021/12/23 20:01:02;;;;;;;198.02;51.10;;;;;;;;;;4980320;28;96322;-74
2021/12/23 20:03:28;;;;;;;236.40;51.42;;;;;;;;;;4969284;28;97251;-76
2021/12/23 20:05:54;;;;;;;224.88;52.78;;;;;;;;;;4972546;28;95470;-75
2021/12/23 20:08:21;;;;;;;250.25;54.33;;;;;;;;;;4971586;28;96801;-77
2021/12/23 20:10:48;;;;;;;226.02;52.00;;;;;;;;;;4972133;28;97168;-77
2021/12/23 20:13:15;;;;;;;244.35;54.30;;;;;;;;;;4990472;28;95534;-75
2021/12/23 20:15:42;;;;;;;249.30;55.42;;;;;;;;;;4972893;28;97374;-75
2021/12/23 20:18:09;;;;;;;252.35;54.08;;;;;;;;;;4981067;28;95842;-76
2021/12/23 20:20:37;;;;;;;216.95;54.78;;;;;;;;;;4975118;28;96897;-76
2021/12/23 20:23:04;;;;;;;219.88;52.35;;;;;;;;;;4989783;28;97711;-75
2021/12/23 20:25:31;;;;;;;202.82;48.63;;;;;;;;;;4981756;28;96208;-77
2021/12/23 20:27:57;;;;;;;200.88;51.97;;;;;;;;;;4983537;28;96870;-76
2021/12/23 20:30:25;;;;;;;170.13;47.33;;;;;;;;;;4978148;28;97356;-77
2021/12/23 20:32:52;;;;;;;148.38;43.67;;;;;;;;;;4991444;28;95312;-75
2021/12/23 20:35:20;;;;;;;158.65;45.78;;;;;;;;;;4978992;28;97345;-76
2021/12/23 20:37:46;;;;;;;136.45;43.83;;;;;;;;;;4990504;28;95412;-74
2021/12/23 20:40:14;;;;;;;126.55;40.38;;;;;;;;;;4974547;28;96787;-75
2021/12/23 20:42:45;;;;;;;;;;;;;;;;;;4987524;28;97366;-74
2021/12/23 20:45:12;;;;;;;111.03;35.38;;;;;;;;;;4983169;28;119039;-76
2021/12/23 20:47:39;;;;;;;111.30;37.15;;;;;;;;;;4977122;28;97434;-75
2021/12/23 20:50:08;;;;;;;124.53;40.95;;;;;;;;;;4982485;28;97470;-76
2021/12/23 20:52:35;;;;;;;122.05;38.67;;;;;;;;;;4986567;28;96248;-76
2021/12/23 20:55:06;;;;;;;115.60;38.10;;;;;;;;;;4985592;28;96805;-77
2021/12/23 20:57:33;;;;;;;122.75;39.78;;;;;;;;;;4979047;28;95956;-77
2021/12/23 21:00:00;;;;;;;125.60;40.80;;;;;;;;;;4989787;28;96783;-76
2021/12/23 21:02:30;;;;;;;138.52;42.47;;;;;;;;;;4989744;28;97649;-75
2021/12/23 21:04:58;;;;;;;121.25;38.78;;;;;;;;;;4975425;28;95738;-74
2021/12/23 21:07:25;;;;;;;145.95;43.78;;;;;;;;;;4975390;28;95812;-74
2021/12/23 21:09:54;;;;;;;159.13;49.17;;;;;;;;;;4989981;28;97605;-75
2021/12/23 21:12:20;;;;;;;153.35;45.83;;;;;;;;;;4987183;28;95751;-74
2021/12/23 21:14:49;;;;;;;170.63;46.38;;;;;;;;;;4996560;28;96940;-75
2021/12/23 21:17:16;;;;;;;156.60;50.55;;;;;;;;;;4992839;28;96412;-74
2021/12/23 21:19:43;;;;;;;163.80;51.10;;;;;;;;;;4990259;28;95738;-76
2021/12/23 21:22:11;;;;;;;171.93;45.08;;;;;;;;;;4990111;28;97375;-76
2021/12/23 21:24:37;;;;;;;174.80;48.47;;;;;;;;;;4997525;28;95411;-76
2021/12/23 21:27:05;;;;;;;166.00;47.05;;;;;;;;;;5010492;28;96869;-75
2021/12/23 21:29:32;;;;;;;175.68;47.85;;;;;;;;;;4973181;28;97716;-74
2021/12/23 21:31:59;;;;;;;159.80;45.58;;;;;;;;;;4981928;28;95322;-77
2021/12/23 21:34:26;;;;;;;156.68;45.05;;;;;;;;;;4991883;28;97256;-75
2021/12/23 21:36:53;;;;;;;164.52;46.35;;;;;;;;;;4981775;28;97706;-75
2021/12/23 21:39:19;;;;;;;165.23;50.70;;;;;;;;;;4994356;28;95283;-75
2021/12/23 21:41:47;;;;;;;149.82;42.58;;;;;;;;;;4989412;28;97364;-75
2021/12/23 21:44:14;;;;;;;139.52;42.15;;;;;;;;;;4990010;28;95311;-76
2021/12/23 21:46:40;;;;;;;149.60;43.13;;;;;;;;;;4982167;28;97253;-76
2021/12/23 21:49:09;;;;;;;137.00;43.35;;;;;;;;;;4992147;28;97415;-76
2021/12/23 21:51:37;;;;;;;140.38;43.30;;;;;;;;;;4969820;28;95720;-76
2021/12/23 21:54:05;;;;;;;124.05;41.72;;;;;;;;;;4984775;28;96816;-76
2021/12/23 21:56:32;;;;;;;131.38;44.13;;;;;;;;;;4990810;28;97765;-75
2021/12/23 21:58:59;;;;;;;139.80;44.70;;;;;;;;;;4985513;28;95791;-75
2021/12/23 22:01:25;;;;;;;125.80;42.15;;;;;;;;;;4993733;28;97075;-76
2021/12/23 22:03:57;;;;;;;115.28;40.38;;;;;;;;;;4984451;28;95468;-76
2021/12/23 22:06:24;;;;;;;135.83;41.40;;;;;;;;;;4981360;28;95762;-76
2021/12/23 22:08:51;;;;;;;135.45;42.45;;;;;;;;;;4988772;28;97376;-75
2021/12/23 22:11:18;;;;;;;122.85;42.80;;;;;;;;;;4995395;28;95441;-75
2021/12/23 22:13:44;;;;;;;124.53;40.13;;;;;;;;;;5004506;28;97043;-76
2021/12/23 22:16:16;;;;;;;132.15;42.65;;;;;;;;;;4989787;28;97653;-75
2021/12/23 22:18:43;;;;;;;;;;;;;;;;;;4991065;28;95210;-75
2021/12/23 22:21:09;;;;;;;121.78;38.85;;;;;;;;;;4987891;28;125991;-75
2021/12/23 22:23:36;;;;;;;127.88;39.25;;;;;;;;;;4993684;28;97318;-76
2021/12/23 22:26:03;;;;;;;123.20;40.15;;;;;;;;;;4999575;28;96876;-75
2021/12/23 22:28:29;;;;;;;122.80;40.95;;;;;;;;;;4989187;28;97684;-75
2021/12/23 22:30:56;;;;;;;135.00;41.40;;;;;;;;;;4990144;28;95191;-76
2021/12/23 22:33:24;;;;;;;114.90;37.42;;;;;;;;;;4990001;28;95851;-75
2021/12/23 22:35:51;;;;;;;130.70;39.90;;;;;;;;;;5001195;28;97344;-75
2021/12/23 22:38:20;;;;;;;139.70;41.47;;;;;;;;;;4985408;28;95368;-76
2021/12/23 22:40:47;;;;;;;135.63;41.90;;;;;;;;;;4969760;28;97086;-77
2021/12/23 22:43:14;;;;;;;131.93;42.70;;;;;;;;;;4977769;28;97398;-75
2021/12/23 22:45:41;;;;;;;113.60;41.38;;;;;;;;;;4997776;28;97397;-76
2021/12/23 22:48:08;;;;;;;117.60;39.03;;;;;;;;;;5007921;28;98182;-75
2021/12/23 22:50:34;;;;;;;107.10;35.40;;;;;;;;;;5003319;28;95744;-78
2021/12/23 22:53:01;;;;;;;124.03;39.90;;;;;;;;;;4989510;28;96786;-77
2021/12/23 22:55:29;;;;;;;125.82;39.40;;;;;;;;;;4999919;28;97461;-76
2021/12/23 22:57:55;;;;;;;109.93;38.03;;;;;;;;;;5009216;28;95997;-76
2021/12/23 23:00:33;;;;;;;118.05;37.40;;;;;;;;;;5004842;28;97080;-76
2021/12/23 23:03:03;;;;;;;134.55;38.10;;;;;;;;;;4992699;28;97355;-76
2021/12/23 23:05:29;;;;;;;123.80;39.78;;;;;;;;;;5007157;28;96748;-76
2021/12/23 23:07:56;;;;;;;130.00;41.53;;;;;;;;;;4989340;28;97614;-76
2021/12/23 23:10:39;;;;;;;118.10;39.97;;;;;;;;;;4989235;28;95618;-76
2021/12/23 23:13:14;;;;;;;115.50;39.67;;;;;;;;;;4997801;28;96778;-78
2021/12/23 23:18:26;;;;;;;120.90;39.00;;;;;;;;;;4980384;28;95182;-75
2021/12/23 23:20:53;;;;;;;125.35;40.22;;;;;;;;;;5003681;28;95596;-75
2021/12/23 23:23:20;;;;;;;110.30;37.22;;;;;;;;;;5008080;28;97593;-76
2021/12/23 23:25:50;;;;;;;131.52;41.30;;;;;;;;;;5008451;28;95274;-74
2021/12/23 23:36:48;;;;;;;115.43;38.63;;;;;;;;;;4992600;28;97284;-76
2021/12/23 23:39:34;;;;;;;112.60;36.70;;;;;;;;;;5008403;28;95225;-75
2021/12/23 23:42:01;;;;;;;112.43;38.10;;;;;;;;;;5002904;28;96750;-75
2021/12/23 23:44:27;;;;;;;121.90;37.83;;;;;;;;;;4988443;28;97405;-74